createdAt,value
2017-03-26T00:06:56.957Z,-57
2017-03-26T00:16:56.962Z,-57
2017-03-26T00:26:56.885Z,-58
2017-03-26T00:36:56.941Z,-58
2017-03-26T00:46:56.906Z,-57
2017-03-26T00:56:56.938Z,-57
2017-03-26T01:06:56.987Z,-58
2017-03-26T01:16:56.871Z,-58
2017-03-26T01:26:56.950Z,-58
2017-03-26T01:36:56.906Z,-58
2017-03-26T01:46:56.877Z,-58
2017-03-26T01:56:56.922Z,-58
2017-03-26T02:06:56.887Z,-57
2017-03-26T02:16:56.858Z,-58
2017-03-26T02:26:56.904Z,-57
2017-03-26T02:36:56.909Z,-58
2017-03-26T02:46:56.845Z,-58
2017-03-26T02:56:56.880Z,-58
2017-03-26T03:06:56.857Z,-58
2017-03-26T03:16:56.878Z,-58
2017-03-26T03:26:56.904Z,-55
2017-03-26T03:36:56.851Z,-57
2017-03-26T03:46:56.921Z,-58
2017-03-26T03:56:56.909Z,-58
2017-03-26T04:06:56.809Z,-58
2017-03-26T04:16:56.926Z,-57
2017-03-26T04:26:56.910Z,-57
2017-03-26T04:36:56.923Z,-58
2017-03-26T04:46:56.851Z,-57
2017-03-26T04:56:56.841Z,-58
2017-03-26T05:06:56.909Z,-57
2017-03-26T05:16:56.848Z,-58
2017-03-26T05:26:56.816Z,-57
2017-03-26T05:36:56.809Z,-58
2017-03-26T05:46:56.853Z,-57
2017-03-26T05:56:56.845Z,-58
2017-03-26T06:06:56.873Z,-57
2017-03-26T06:16:56.920Z,-58
2017-03-26T06:26:56.875Z,-57
2017-03-26T06:36:56.964Z,-58
2017-03-26T06:46:56.914Z,-58
2017-03-26T06:56:56.969Z,-58
2017-03-26T07:06:56.946Z,-58
2017-03-26T07:16:57.005Z,-58
2017-03-26T07:26:56.972Z,-58
2017-03-26T07:36:56.950Z,-59
2017-03-26T07:46:56.937Z,-59
2017-03-26T07:56:56.905Z,-60
2017-03-26T08:06:56.931Z,-56
2017-03-26T08:16:56.950Z,-58
2017-03-26T08:26:56.993Z,-58
2017-03-26T08:36:56.973Z,-59
2017-03-26T08:46:57.038Z,-58
2017-03-26T08:56:56.983Z,-59
2017-03-26T09:06:56.997Z,-58
2017-03-26T09:16:56.995Z,-58
2017-03-26T09:26:56.986Z,-58
2017-03-26T09:36:57.031Z,-59
2017-03-26T09:46:57.014Z,-58
2017-03-26T09:56:57.025Z,-58
2017-03-26T10:06:57.085Z,-59
2017-03-26T10:16:57.186Z,-59
2017-03-26T10:26:57.034Z,-59
2017-03-26T10:36:57.072Z,-59
2017-03-26T10:46:57.084Z,-59
2017-03-26T10:56:57.124Z,-59
2017-03-26T11:06:57.152Z,-60
2017-03-26T11:16:57.131Z,-59
2017-03-26T11:26:57.116Z,-58
2017-03-26T11:36:57.191Z,-59
2017-03-26T11:46:57.118Z,-59
2017-03-26T11:56:57.115Z,-58
2017-03-26T12:46:19.888Z,-61
2017-03-26T12:56:19.791Z,-61
2017-03-26T13:06:19.855Z,-61
2017-03-26T13:16:19.970Z,-61
2017-03-26T13:26:19.804Z,-61
2017-03-26T13:36:19.951Z,-61
2017-03-26T13:46:20.022Z,-58
2017-03-26T13:56:19.841Z,-62
2017-03-26T14:06:19.963Z,-58
2017-03-26T14:16:21.517Z,-58
2017-03-26T14:26:19.895Z,-58
2017-03-26T14:36:20.162Z,-62
2017-03-26T14:46:19.971Z,-61
2017-03-26T14:56:20.086Z,-61
2017-03-26T15:06:20.026Z,-61
2017-03-26T15:16:20.534Z,-62
2017-03-26T15:26:20.603Z,-62
2017-03-26T15:36:20.010Z,-59
2017-03-26T15:46:20.042Z,-62
2017-03-26T15:56:20.007Z,-61
2017-03-26T16:06:20.023Z,-62
2017-03-26T16:16:20.141Z,-61
